createdAt,value
2023-10-13T00:00:49.726Z,10.77
2023-10-13T00:03:16.866Z,10.76
2023-10-13T00:05:44.205Z,10.76
2023-10-13T00:08:11.230Z,10.81
2023-10-13T00:10:38.113Z,10.74
2023-10-13T00:13:22.929Z,10.84
2023-10-13T00:15:59.180Z,10.88
2023-10-13T00:18:42.889Z,10.78
2023-10-13T00:21:16.926Z,10.71
2023-10-13T00:23:56.016Z,10.65
2023-10-13T00:26:31.183Z,10.54
2023-10-13T00:29:08.912Z,10.50
2023-10-13T00:31:39.702Z,10.43
2023-10-13T00:34:41.522Z,10.46
2023-10-13T00:37:20.357Z,10.37
2023-10-13T00:39:47.166Z,10.42
2023-10-13T00:42:31.967Z,10.45
2023-10-13T00:44:59.252Z,10.46
2023-10-13T00:47:37.799Z,10.44
2023-10-13T00:50:12.107Z,10.44
2023-10-13T00:52:42.903Z,10.45
2023-10-13T00:55:10.925Z,10.42
2023-10-13T00:57:38.523Z,10.47
2023-10-13T01:00:13.724Z,10.43
2023-10-13T01:02:40.758Z,10.41
2023-10-13T01:05:12.855Z,10.54
2023-10-13T01:07:39.953Z,10.61
2023-10-13T01:10:14.710Z,10.62
2023-10-13T01:12:43.774Z,10.67
2023-10-13T01:15:12.616Z,10.68
2023-10-13T01:17:39.234Z,10.55
2023-10-13T01:20:07.335Z,10.40
2023-10-13T01:22:34.111Z,10.24
2023-10-13T01:25:11.942Z,10.19
2023-10-13T01:27:42.151Z,10.06
2023-10-13T01:30:23.913Z,9.98
2023-10-13T01:32:52.265Z,10.02
2023-10-13T01:35:36.678Z,10.03
2023-10-13T01:38:03.676Z,9.89
2023-10-13T01:40:34.900Z,9.83
2023-10-13T01:43:02.681Z,9.80
2023-10-13T01:45:33.170Z,9.82
2023-10-13T01:47:59.947Z,9.92
2023-10-13T01:50:30.548Z,9.95
2023-10-13T01:53:13.339Z,9.92
2023-10-13T01:55:44.735Z,10.02
2023-10-13T01:58:21.135Z,10.06
2023-10-13T02:00:49.091Z,10.10
2023-10-13T02:03:17.817Z,10.15
2023-10-13T02:05:49.383Z,10.20
2023-10-13T02:08:24.021Z,10.16
2023-10-13T02:10:54.821Z,10.20
2023-10-13T02:13:24.381Z,10.18
2023-10-13T02:15:57.756Z,10.22
2023-10-13T02:18:28.555Z,10.18
2023-10-13T02:20:56.308Z,10.04
2023-10-13T02:23:26.376Z,9.82
2023-10-13T02:26:01.625Z,9.67
2023-10-13T02:28:30.694Z,9.59
2023-10-13T02:30:58.688Z,9.47
2023-10-13T02:33:34.317Z,9.51
2023-10-13T02:36:06.559Z,9.43
2023-10-13T02:38:34.210Z,9.47
2023-10-13T02:41:07.088Z,9.49
2023-10-13T02:43:37.349Z,9.45
2023-10-13T02:46:05.376Z,9.44
2023-10-13T02:48:41.379Z,9.59
2023-10-13T02:51:16.579Z,9.59
2023-10-13T02:53:48.022Z,9.46
2023-10-13T02:56:15.008Z,9.41
2023-10-13T02:58:46.810Z,9.38
2023-10-13T03:01:19.347Z,9.35
2023-10-13T03:03:55.467Z,9.45
2023-10-13T03:06:33.763Z,9.48
2023-10-13T03:09:14.894Z,9.58
2023-10-13T03:11:50.912Z,9.63
2023-10-13T03:14:32.547Z,9.70
2023-10-13T03:17:10.373Z,9.62
2023-10-13T03:19:38.318Z,9.60
2023-10-13T03:22:17.494Z,9.54
2023-10-13T03:24:48.609Z,9.63
2023-10-13T03:27:23.053Z,9.67
2023-10-13T03:29:56.064Z,9.70
2023-10-13T03:32:27.736Z,9.64
2023-10-13T03:34:56.046Z,9.49
2023-10-13T03:37:42.164Z,9.43
2023-10-13T03:40:22.201Z,9.35
2023-10-13T03:43:01.811Z,9.27
2023-10-13T03:45:28.555Z,9.23
2023-10-13T03:47:55.338Z,9.17
2023-10-13T03:50:32.925Z,9.20
2023-10-13T03:52:59.708Z,9.20
2023-10-13T03:55:30.423Z,9.05
2023-10-13T03:58:00.937Z,9.09
2023-10-13T04:00:30.369Z,9.04
2023-10-13T04:03:10.617Z,8.98
2023-10-13T04:05:37.987Z,8.99
2023-10-13T04:08:26.969Z,9.09
2023-10-13T04:10:55.027Z,8.95
2023-10-13T04:13:41.041Z,8.73
2023-10-13T04:16:23.329Z,8.75
2023-10-13T04:18:56.881Z,8.68
2023-10-13T04:21:42.084Z,8.66
2023-10-13T04:24:19.363Z,8.67
2023-10-13T04:27:04.460Z,8.64
2023-10-13T04:29:49.582Z,8.56
2023-10-13T04:32:30.318Z,8.61
2023-10-13T04:35:11.354Z,8.64
2023-10-13T04:37:59.727Z,8.74
2023-10-13T04:40:27.255Z,8.77
2023-10-13T04:43:05.368Z,8.75
2023-10-13T04:45:32.524Z,8.78
2023-10-13T04:48:20.240Z,8.80
2023-10-13T04:51:09.897Z,8.77
2023-10-13T04:53:56.514Z,8.80
2023-10-13T04:56:46.189Z,8.75
2023-10-13T04:59:31.151Z,8.97
2023-10-13T05:02:16.263Z,9.02
2023-10-13T05:05:01.484Z,8.99
2023-10-13T05:07:46.748Z,9.01
2023-10-13T05:10:32.014Z,8.86
2023-10-13T05:13:17.502Z,8.80
2023-10-13T05:16:09.888Z,8.66
2023-10-13T05:18:57.712Z,8.66
2023-10-13T05:21:43.052Z,8.56
2023-10-13T05:24:28.212Z,8.55
2023-10-13T05:27:13.953Z,8.53
2023-10-13T05:30:03.839Z,8.52
2023-10-13T05:32:49.299Z,8.61
2023-10-13T05:35:35.199Z,8.62
2023-10-13T05:38:20.682Z,8.76
2023-10-13T05:41:13.402Z,9.01
2023-10-13T05:43:59.794Z,9.01
2023-10-13T05:46:26.579Z,9.47
2023-10-13T05:48:59.506Z,9.78
2023-10-13T05:51:36.554Z,10.11
2023-10-13T05:54:16.655Z,10.38
2023-10-13T05:57:03.438Z,10.95
2023-10-13T05:59:50.186Z,11.49
2023-10-13T06:02:36.998Z,11.84
2023-10-13T06:05:23.214Z,12.25
2023-10-13T06:08:08.657Z,12.71
2023-10-13T06:10:54.258Z,13.06
2023-10-13T06:13:39.240Z,13.34
2023-10-13T06:16:26.358Z,13.70
2023-10-13T06:19:11.878Z,13.89
2023-10-13T06:21:57.305Z,14.02
2023-10-13T06:24:42.813Z,14.33
2023-10-13T06:27:28.212Z,14.66
2023-10-13T06:29:55.298Z,14.80
2023-10-13T06:32:27.206Z,15.10
2023-10-13T06:35:08.453Z,15.48
2023-10-13T06:37:35.645Z,15.87
2023-10-13T06:40:23.639Z,16.29
2023-10-13T06:42:50.527Z,16.61
2023-10-13T06:45:19.631Z,16.89
2023-10-13T06:47:46.312Z,17.03
2023-10-13T06:50:17.090Z,17.41
2023-10-13T06:52:44.607Z,17.32
2023-10-13T06:55:18.149Z,17.15
2023-10-13T06:57:45.624Z,17.45
2023-10-13T07:00:21.241Z,17.56
2023-10-13T07:02:48.146Z,17.47
2023-10-13T07:05:15.488Z,17.78
2023-10-13T07:07:42.105Z,17.91
2023-10-13T07:10:10.690Z,18.14
2023-10-13T07:12:38.341Z,18.63
2023-10-13T07:15:20.408Z,18.95
2023-10-13T07:17:57.157Z,19.32
2023-10-13T07:20:35.597Z,19.59
2023-10-13T07:23:05.157Z,19.57
2023-10-13T07:25:34.133Z,19.72
2023-10-13T07:28:01.752Z,20.03
2023-10-13T07:30:28.872Z,20.09
2023-10-13T07:33:00.806Z,20.45
2023-10-13T07:35:32.044Z,20.29
2023-10-13T07:38:01.252Z,20.27
2023-10-13T07:40:28.771Z,20.62
2023-10-13T07:43:02.095Z,20.97
2023-10-13T07:45:37.299Z,20.94
2023-10-13T07:48:21.524Z,21.11
2023-10-13T07:51:17.513Z,21.29
2023-10-13T07:53:45.304Z,21.44
2023-10-13T07:56:15.154Z,21.86
2023-10-13T07:58:54.249Z,22.09
2023-10-13T08:01:21.340Z,22.28
2023-10-13T08:03:48.731Z,22.27
2023-10-13T08:06:20.625Z,22.43
2023-10-13T08:08:54.423Z,22.74
2023-10-13T08:11:24.226Z,22.85
2023-10-13T08:14:04.200Z,23.10
2023-10-13T08:16:47.942Z,23.45
2023-10-13T08:19:16.485Z,23.83
2023-10-13T08:21:53.454Z,24.51
2023-10-13T08:24:30.016Z,24.90
2023-10-13T08:27:15.609Z,25.81
2023-10-13T08:29:55.915Z,26.63
2023-10-13T08:32:30.267Z,27.48
2023-10-13T08:34:58.691Z,27.71
2023-10-13T08:37:26.896Z,27.75
2023-10-13T08:40:24.253Z,27.07
2023-10-13T08:43:05.006Z,28.20
2023-10-13T08:45:32.860Z,29.19
2023-10-13T08:48:13.556Z,30.08
2023-10-13T08:50:54.051Z,30.52
2023-10-13T08:53:29.722Z,31.35
2023-10-13T08:56:10.091Z,31.68
2023-10-13T08:58:55.526Z,31.69
2023-10-13T09:02:01.141Z,31.64
2023-10-13T09:04:39.540Z,31.85
2023-10-13T09:07:07.148Z,31.71
2023-10-13T09:09:48.433Z,30.09
2023-10-13T09:12:18.556Z,30.15
2023-10-13T09:14:58.127Z,30.05
2023-10-13T09:17:35.115Z,29.31
2023-10-13T09:20:27.087Z,28.96
2023-10-13T09:23:05.411Z,28.37
2023-10-13T09:25:37.309Z,27.43
2023-10-13T09:28:23.084Z,26.25
2023-10-13T09:30:54.631Z,25.63
2023-10-13T09:33:30.655Z,25.15
2023-10-13T09:36:00.743Z,24.85
2023-10-13T09:38:32.489Z,24.58
2023-10-13T09:41:02.996Z,24.23
2023-10-13T09:43:32.450Z,24.28
2023-10-13T09:46:08.763Z,24.29
2023-10-13T09:48:41.881Z,24.20
2023-10-13T09:51:15.147Z,23.96
2023-10-13T09:54:21.923Z,23.85
2023-10-13T09:56:55.302Z,23.99
2023-10-13T09:59:54.002Z,24.17
2023-10-13T10:02:27.762Z,24.23
2023-10-13T10:05:13.976Z,24.27
2023-10-13T10:07:41.117Z,24.16
2023-10-13T10:10:12.440Z,24.15
2023-10-13T10:12:58.586Z,24.21
2023-10-13T10:15:36.676Z,24.54
2023-10-13T10:18:04.888Z,24.78
2023-10-13T10:20:46.501Z,24.92
2023-10-13T10:23:25.729Z,24.85
2023-10-13T10:25:53.070Z,24.82
2023-10-13T10:28:21.143Z,24.97
2023-10-13T10:30:48.262Z,24.80
2023-10-13T10:33:16.828Z,24.90
2023-10-13T10:35:44.963Z,24.68
2023-10-13T10:38:25.381Z,24.88
2023-10-13T10:40:58.451Z,25.03
2023-10-13T10:43:33.828Z,25.15
2023-10-13T10:46:00.918Z,24.90
2023-10-13T10:48:33.074Z,24.81
2023-10-13T10:51:07.234Z,24.89
2023-10-13T10:53:44.355Z,25.23
2023-10-13T10:56:21.744Z,25.47
2023-10-13T10:58:49.391Z,25.45
2023-10-13T11:01:22.059Z,25.49
2023-10-13T11:04:00.889Z,25.51
2023-10-13T11:06:28.349Z,25.59
2023-10-13T11:09:20.015Z,25.69
2023-10-13T11:11:47.961Z,25.76
2023-10-13T11:14:26.998Z,25.89
2023-10-13T11:16:55.524Z,25.89
2023-10-13T11:19:36.111Z,26.08
2023-10-13T11:22:33.165Z,26.06
2023-10-13T11:25:01.671Z,26.24
2023-10-13T11:27:50.365Z,26.40
2023-10-13T11:30:21.557Z,26.53
2023-10-13T11:33:09.728Z,26.39
2023-10-13T11:35:50.648Z,26.15
2023-10-13T11:38:26.839Z,26.20
2023-10-13T11:41:06.336Z,26.22
2023-10-13T11:43:43.983Z,26.09
2023-10-13T11:46:11.763Z,26.31
2023-10-13T11:48:39.209Z,26.51
2023-10-13T11:51:18.292Z,26.73
2023-10-13T11:53:54.492Z,26.99
2023-10-13T11:56:25.417Z,27.19
2023-10-13T11:58:52.629Z,27.19
2023-10-13T12:01:19.716Z,27.06
2023-10-13T12:04:07.537Z,26.96
2023-10-13T12:06:38.644Z,26.92
2023-10-13T12:09:19.292Z,27.00
2023-10-13T12:11:47.251Z,27.06
2023-10-13T12:14:28.826Z,27.19
2023-10-13T12:16:56.938Z,27.30
2023-10-13T12:19:25.379Z,27.23
2023-10-13T12:22:06.767Z,27.31
2023-10-13T12:24:36.073Z,27.41
2023-10-13T12:27:24.870Z,27.59
2023-10-13T12:29:53.173Z,27.65
2023-10-13T12:32:26.556Z,27.55
2023-10-13T12:35:17.668Z,27.45
2023-10-13T12:37:44.635Z,27.43
2023-10-13T12:40:34.784Z,27.44
2023-10-13T12:43:20.684Z,27.37
2023-10-13T12:46:07.419Z,27.37
2023-10-13T12:48:53.013Z,27.50
2023-10-13T12:51:23.227Z,27.54
2023-10-13T12:53:51.813Z,27.62
2023-10-13T12:56:27.114Z,27.74
2023-10-13T12:58:55.304Z,27.60
2023-10-13T13:01:23.873Z,27.67
2023-10-13T13:03:52.172Z,27.60
2023-10-13T13:06:30.821Z,27.60
2023-10-13T13:08:59.851Z,27.61
2023-10-13T13:11:31.032Z,27.52
2023-10-13T13:13:57.911Z,27.54
2023-10-13T13:16:31.926Z,27.55
2023-10-13T13:18:58.808Z,27.52
2023-10-13T13:21:25.531Z,27.56
2023-10-13T13:23:56.191Z,27.65
2023-10-13T13:26:23.677Z,27.65
2023-10-13T13:28:53.433Z,27.67
2023-10-13T13:31:26.487Z,27.72
2023-10-13T13:33:53.928Z,27.75
2023-10-13T13:36:20.685Z,27.82
2023-10-13T13:38:47.826Z,27.82
2023-10-13T13:41:17.770Z,27.78
2023-10-13T13:43:51.234Z,27.80
2023-10-13T13:46:19.436Z,27.83
2023-10-13T13:48:49.365Z,27.89
2023-10-13T13:51:16.622Z,27.79
2023-10-13T13:53:46.320Z,27.77
2023-10-13T13:56:20.174Z,27.77
2023-10-13T13:58:47.923Z,27.71
2023-10-13T14:01:19.922Z,27.69
2023-10-13T14:03:48.583Z,27.63
2023-10-13T14:06:22.307Z,27.54
2023-10-13T14:08:58.122Z,27.59
2023-10-13T14:11:42.002Z,27.56
2023-10-13T14:14:25.687Z,27.63
2023-10-13T14:16:53.380Z,27.44
2023-10-13T14:19:29.946Z,27.48
2023-10-13T14:21:57.831Z,27.43
2023-10-13T14:24:29.891Z,27.43
2023-10-13T14:27:08.667Z,27.28
2023-10-13T14:29:41.459Z,27.20
2023-10-13T14:32:13.305Z,27.13
2023-10-13T14:34:44.768Z,27.05
2023-10-13T14:37:14.830Z,27.11
2023-10-13T14:39:42.213Z,27.09
2023-10-13T14:42:08.961Z,27.00
2023-10-13T14:44:36.443Z,26.85
2023-10-13T14:47:03.494Z,26.77
2023-10-13T14:49:30.174Z,26.50
2023-10-13T14:51:56.795Z,26.35
2023-10-13T14:54:33.992Z,26.23
2023-10-13T14:57:04.730Z,26.00
2023-10-13T14:59:34.738Z,25.77
2023-10-13T15:02:02.974Z,25.72
2023-10-13T15:04:34.082Z,25.59
2023-10-13T15:07:04.950Z,25.40
2023-10-13T15:09:31.616Z,25.28
2023-10-13T15:11:58.606Z,25.20
2023-10-13T15:14:25.861Z,25.02
2023-10-13T15:16:53.926Z,24.89
2023-10-13T15:19:20.724Z,24.73
2023-10-13T15:21:51.892Z,24.49
2023-10-13T15:24:26.007Z,24.29
2023-10-13T15:27:03.059Z,24.06
2023-10-13T15:29:37.339Z,23.91
2023-10-13T15:32:26.251Z,23.56
2023-10-13T15:34:53.576Z,23.44
2023-10-13T15:37:21.445Z,23.28
2023-10-13T15:39:48.209Z,23.11
2023-10-13T15:42:15.463Z,22.90
2023-10-13T15:44:44.458Z,22.69
2023-10-13T15:49:43.556Z,22.41
2023-10-13T15:52:11.053Z,22.07
2023-10-13T15:54:37.760Z,22.04
2023-10-13T15:57:07.544Z,21.84
2023-10-13T15:59:35.565Z,21.72
2023-10-13T16:02:04.922Z,21.63
2023-10-13T16:04:31.824Z,21.58
2023-10-13T16:06:58.693Z,21.53
2023-10-13T16:09:25.948Z,21.45
2023-10-13T16:11:54.221Z,21.28
2023-10-13T16:14:22.335Z,21.21
2023-10-13T16:16:51.076Z,21.14
2023-10-13T16:19:22.836Z,21.10
2023-10-13T16:21:51.730Z,21.01
2023-10-13T16:24:21.649Z,20.94
2023-10-13T16:26:57.151Z,20.87
2023-10-13T16:29:24.329Z,20.78
2023-10-13T16:31:51.154Z,20.68
2023-10-13T16:34:19.625Z,20.63
2023-10-13T16:36:55.820Z,20.52
2023-10-13T16:39:24.315Z,20.43
2023-10-13T16:41:53.324Z,20.32
2023-10-13T16:44:26.947Z,20.26
2023-10-13T16:47:02.040Z,20.19
2023-10-13T16:49:29.281Z,20.08
2023-10-13T16:51:56.162Z,19.98
2023-10-13T16:54:23.111Z,19.91
2023-10-13T16:56:52.051Z,19.80
2023-10-13T16:59:18.942Z,19.74
2023-10-13T17:01:47.200Z,19.54
2023-10-13T17:04:17.346Z,19.49
2023-10-13T17:06:44.187Z,19.40
2023-10-13T17:09:12.979Z,19.44
2023-10-13T17:11:42.180Z,19.35
2023-10-13T17:14:09.108Z,19.32
2023-10-13T17:16:35.982Z,19.23
2023-10-13T17:19:02.917Z,19.20
2023-10-13T17:21:29.887Z,19.16
2023-10-13T17:23:57.584Z,19.07
2023-10-13T17:26:27.940Z,19.11
2023-10-13T17:29:04.238Z,19.15
2023-10-13T17:31:33.247Z,19.13
2023-10-13T17:34:00.649Z,19.11
2023-10-13T17:36:31.140Z,18.97
2023-10-13T17:38:58.490Z,18.87
2023-10-13T17:41:25.744Z,18.82
2023-10-13T17:43:52.658Z,18.74
2023-10-13T17:46:22.155Z,18.52
2023-10-13T17:48:49.320Z,18.48
2023-10-13T17:51:16.104Z,18.33
2023-10-13T17:53:42.783Z,18.28
2023-10-13T17:56:14.158Z,18.19
2023-10-13T17:58:44.568Z,18.11
2023-10-13T18:01:20.490Z,17.97
2023-10-13T18:03:52.247Z,17.92
2023-10-13T18:06:24.002Z,17.80
2023-10-13T18:08:52.689Z,17.77
2023-10-13T18:11:20.002Z,17.74
2023-10-13T18:13:47.490Z,17.65
2023-10-13T18:16:15.960Z,17.53
2023-10-13T18:18:46.079Z,17.46
2023-10-13T18:21:13.694Z,17.26
2023-10-13T18:23:41.518Z,17.17
2023-10-13T18:26:08.426Z,17.20
2023-10-13T18:28:35.156Z,17.25
2023-10-13T18:31:12.326Z,17.35
2023-10-13T18:33:41.444Z,17.30
2023-10-13T18:36:25.749Z,17.08
2023-10-13T18:38:53.146Z,17.00
2023-10-13T18:41:26.932Z,17.08
2023-10-13T18:43:53.797Z,17.08
2023-10-13T18:46:26.728Z,17.09
2023-10-13T18:48:58.722Z,17.02
2023-10-13T18:51:26.972Z,17.00
2023-10-13T18:53:58.011Z,16.91
2023-10-13T18:56:25.183Z,16.84
2023-10-13T18:58:56.512Z,16.78
2023-10-13T19:01:29.452Z,16.72
2023-10-13T19:04:00.704Z,16.73
2023-10-13T19:06:31.867Z,16.86
2023-10-13T19:08:59.167Z,16.82
2023-10-13T19:11:25.986Z,16.73
2023-10-13T19:13:53.698Z,16.80
2023-10-13T19:16:27.196Z,16.85
2023-10-13T19:18:55.105Z,16.97
2023-10-13T19:21:22.446Z,17.05
2023-10-13T19:23:51.508Z,17.06
2023-10-13T19:26:25.730Z,16.88
2023-10-13T19:28:56.578Z,16.72
2023-10-13T19:31:28.232Z,16.60
2023-10-13T19:34:11.343Z,16.47
2023-10-13T19:36:38.076Z,16.32
2023-10-13T19:39:09.290Z,16.16
2023-10-13T19:41:37.095Z,16.09
2023-10-13T19:44:05.175Z,16.02
2023-10-13T19:46:34.471Z,16.06
2023-10-13T19:49:04.833Z,16.03
2023-10-13T19:51:32.538Z,15.90
2023-10-13T19:54:03.684Z,15.77
2023-10-13T19:56:32.430Z,15.68
2023-10-13T19:59:02.230Z,15.62
2023-10-13T20:01:34.537Z,15.51
2023-10-13T20:06:29.998Z,15.50
2023-10-13T20:09:23.843Z,15.49
2023-10-13T20:11:53.938Z,15.48
2023-10-13T20:14:23.682Z,15.42
2023-10-13T20:16:50.903Z,15.34
2023-10-13T20:19:17.854Z,15.26
2023-10-13T20:21:48.389Z,15.33
2023-10-13T20:24:15.226Z,15.29
2023-10-13T20:26:44.571Z,15.28
2023-10-13T20:29:18.479Z,15.22
2023-10-13T20:31:49.761Z,15.23
2023-10-13T20:34:24.654Z,15.17
2023-10-13T20:36:55.889Z,15.06
2023-10-13T20:39:26.145Z,15.06
2023-10-13T20:41:53.555Z,14.98
2023-10-13T20:44:26.814Z,14.87
2023-10-13T20:46:54.433Z,14.82
2023-10-13T20:49:23.111Z,14.66
2023-10-13T20:51:50.679Z,14.65
2023-10-13T20:54:18.147Z,14.63
2023-10-13T20:56:47.344Z,14.59
2023-10-13T20:59:15.856Z,14.57
2023-10-13T21:01:45.755Z,14.51
2023-10-13T21:04:13.132Z,14.45
2023-10-13T21:06:45.798Z,14.36
2023-10-13T21:09:21.599Z,14.33
2023-10-13T21:11:48.973Z,14.35
2023-10-13T21:14:16.167Z,14.35
2023-10-13T21:16:43.288Z,14.40
2023-10-13T21:19:11.017Z,14.34
2023-10-13T21:21:38.882Z,14.30
2023-10-13T21:24:11.035Z,14.26
2023-10-13T21:26:38.104Z,14.15
2023-10-13T21:29:10.585Z,14.07
2023-10-13T21:31:40.774Z,14.05
2023-10-13T21:34:07.825Z,14.11
2023-10-13T21:36:38.294Z,14.09
2023-10-13T21:39:05.576Z,13.97
2023-10-13T21:41:38.416Z,14.00
2023-10-13T21:44:07.171Z,13.99
2023-10-13T21:46:36.250Z,13.91
2023-10-13T21:49:06.091Z,13.95
2023-10-13T21:51:36.065Z,14.01
2023-10-13T21:54:02.897Z,13.91
2023-10-13T21:56:29.919Z,13.85
2023-10-13T21:58:57.881Z,13.75
2023-10-13T22:01:31.752Z,13.65
2023-10-13T22:04:12.565Z,13.63
2023-10-13T22:06:42.134Z,13.56
2023-10-13T22:09:11.184Z,13.50
2023-10-13T22:11:39.014Z,13.44
2023-10-13T22:14:07.303Z,13.33
2023-10-13T22:16:35.128Z,13.25
2023-10-13T22:19:02.352Z,13.12
2023-10-13T22:21:30.033Z,13.03
2023-10-13T22:24:01.667Z,13.05
2023-10-13T22:26:31.301Z,13.07
2023-10-13T22:28:59.308Z,13.09
2023-10-13T22:31:26.869Z,13.07
2023-10-13T22:33:55.260Z,13.00
2023-10-13T22:36:25.509Z,13.01
2023-10-13T22:38:57.294Z,12.96
2023-10-13T22:41:25.144Z,12.80
2023-10-13T22:43:51.844Z,12.94
2023-10-13T22:46:21.871Z,13.01
2023-10-13T22:48:49.791Z,12.98
2023-10-13T22:51:17.415Z,12.97
2023-10-13T22:53:46.495Z,12.95
2023-10-13T22:56:19.138Z,12.86
2023-10-13T22:58:46.919Z,12.77
2023-10-13T23:01:20.289Z,12.78
2023-10-13T23:03:57.583Z,12.70
2023-10-13T23:06:31.565Z,12.63
2023-10-13T23:09:09.913Z,12.67
2023-10-13T23:11:39.801Z,12.61
2023-10-13T23:14:07.118Z,12.77
2023-10-13T23:16:34.522Z,12.78
2023-10-13T23:19:02.019Z,12.76
2023-10-13T23:21:29.557Z,12.76
2023-10-13T23:23:56.999Z,12.71
2023-10-13T23:26:30.169Z,12.63
2023-10-13T23:28:56.801Z,12.61
2023-10-13T23:31:25.173Z,12.54
2023-10-13T23:33:54.986Z,12.51
2023-10-13T23:36:22.546Z,12.41
2023-10-13T23:39:00.989Z,12.32
2023-10-13T23:41:32.231Z,12.25
2023-10-13T23:44:14.385Z,12.16
2023-10-13T23:46:45.142Z,12.00
2023-10-13T23:49:16.823Z,12.03
2023-10-13T23:51:50.467Z,11.98
2023-10-13T23:54:20.595Z,11.98
2023-10-13T23:56:50.532Z,11.98
2023-10-13T23:59:28.098Z,11.96
